createdAt,value
2023-01-21T00:00:07.243Z,-0.01
2023-01-21T00:02:34.231Z,-0.08
2023-01-21T00:05:01.241Z,-0.08
2023-01-21T00:07:28.166Z,-0.20
2023-01-21T00:09:55.391Z,-0.20
2023-01-21T00:12:22.572Z,-0.29
2023-01-21T00:14:49.272Z,-0.21
2023-01-21T00:17:16.015Z,-0.16
2023-01-21T00:19:42.819Z,-0.21
2023-01-21T00:22:09.626Z,-0.14
2023-01-21T00:24:36.693Z,-0.40
2023-01-21T00:27:03.685Z,-0.27
2023-01-21T00:29:30.866Z,-0.26
2023-01-21T00:32:01.842Z,-0.37
2023-01-21T00:34:29.443Z,-0.33
2023-01-21T00:36:56.714Z,-0.38
2023-01-21T00:39:25.225Z,-0.52
2023-01-21T00:41:51.998Z,-0.44
2023-01-21T00:44:19.335Z,-0.38
2023-01-21T00:46:46.045Z,-0.34
2023-01-21T00:49:12.815Z,-0.27
2023-01-21T00:51:39.570Z,-0.29
2023-01-21T00:54:06.662Z,-0.40
2023-01-21T00:56:33.647Z,-0.35
2023-01-21T00:59:00.656Z,-0.43
2023-01-21T01:01:30.429Z,-0.42
2023-01-21T01:03:57.649Z,-0.37
2023-01-21T01:06:24.895Z,-0.54
2023-01-21T01:08:52.363Z,-0.47
2023-01-21T01:11:21.632Z,-0.55
2023-01-21T01:13:48.696Z,-0.54
2023-01-21T01:16:17.585Z,-0.70
2023-01-21T01:18:44.605Z,-0.49
2023-01-21T01:21:17.015Z,-0.49
2023-01-21T01:23:44.540Z,-0.50
2023-01-21T01:26:14.319Z,-0.51
2023-01-21T01:28:41.412Z,-0.59
2023-01-21T01:31:11.349Z,-0.66
2023-01-21T01:33:38.307Z,-0.63
2023-01-21T01:36:12.472Z,-0.70
2023-01-21T01:38:39.345Z,-0.67
2023-01-21T01:41:06.591Z,-0.57
2023-01-21T01:44:05.822Z,-0.67
2023-01-21T01:46:35.544Z,-0.75
2023-01-21T01:49:10.266Z,-0.70
2023-01-21T01:51:57.335Z,-0.75
2023-01-21T01:54:29.128Z,-0.68
2023-01-21T01:56:58.279Z,-0.72
2023-01-21T01:59:25.225Z,-0.61
2023-01-21T02:01:52.068Z,-0.74
2023-01-21T02:04:23.587Z,-0.63
2023-01-21T02:06:52.545Z,-0.58
2023-01-21T02:09:19.693Z,-0.52
2023-01-21T02:11:46.462Z,-0.51
2023-01-21T02:14:13.709Z,-0.52
2023-01-21T02:17:09.001Z,-0.61
2023-01-21T02:19:45.441Z,-0.63
2023-01-21T02:22:19.870Z,-0.64
2023-01-21T02:24:52.566Z,-0.66
2023-01-21T02:27:37.075Z,-0.82
2023-01-21T02:32:58.970Z,-0.73
2023-01-21T02:35:39.381Z,-0.76
2023-01-21T02:38:17.736Z,-0.65
2023-01-21T02:41:20.919Z,-0.72
2023-01-21T02:44:05.753Z,-0.72
2023-01-21T02:46:42.756Z,-0.63
2023-01-21T02:49:22.575Z,-0.66
2023-01-21T02:51:49.803Z,-0.67
2023-01-21T02:54:38.990Z,-0.64
2023-01-21T02:57:20.433Z,-0.69
2023-01-21T02:59:49.908Z,-0.66
2023-01-21T03:02:38.728Z,-0.68
2023-01-21T03:05:28.619Z,-0.74
2023-01-21T03:08:02.614Z,-0.79
2023-01-21T03:10:37.151Z,-0.82
2023-01-21T03:13:07.563Z,-0.74
2023-01-21T03:16:07.255Z,-0.91
2023-01-21T03:18:46.029Z,-0.80
2023-01-21T03:21:17.009Z,-0.82
2023-01-21T03:23:47.419Z,-0.85
2023-01-21T03:26:17.988Z,-0.86
2023-01-21T03:28:48.445Z,-0.96
2023-01-21T03:31:22.951Z,-1.01
2023-01-21T03:33:52.540Z,-0.98
2023-01-21T03:36:27.078Z,-0.97
2023-01-21T03:38:56.135Z,-1.08
2023-01-21T03:41:26.140Z,-1.02
2023-01-21T03:43:52.758Z,-1.06
2023-01-21T03:46:37.320Z,-0.97
2023-01-21T03:49:07.247Z,-0.99
2023-01-21T03:51:39.795Z,-1.04
2023-01-21T03:54:06.544Z,-1.03
2023-01-21T03:56:33.024Z,-1.14
2023-01-21T03:58:59.542Z,-1.15
2023-01-21T04:01:25.982Z,-1.13
2023-01-21T04:03:52.872Z,-1.19
2023-01-21T04:06:21.587Z,-1.07
2023-01-21T04:08:54.569Z,-1.05
2023-01-21T04:11:21.135Z,-0.96
2023-01-21T04:13:47.479Z,-0.98
2023-01-21T04:16:14.066Z,-0.95
2023-01-21T04:18:40.541Z,-0.89
2023-01-21T04:21:07.035Z,-0.94
2023-01-21T04:23:33.549Z,-0.95
2023-01-21T04:26:00.354Z,-0.91
2023-01-21T04:28:26.836Z,-0.96
2023-01-21T04:30:53.254Z,-0.97
2023-01-21T04:33:19.711Z,-1.00
2023-01-21T04:35:46.489Z,-0.88
2023-01-21T04:38:13.811Z,-0.88
2023-01-21T04:40:40.224Z,-0.79
2023-01-21T04:43:07.227Z,-0.91
2023-01-21T04:45:34.051Z,-1.09
2023-01-21T04:48:00.537Z,-1.06
2023-01-21T04:50:26.992Z,-1.02
2023-01-21T04:52:53.601Z,-1.00
2023-01-21T04:55:20.261Z,-1.08
2023-01-21T04:57:46.628Z,-1.06
2023-01-21T05:00:13.388Z,-1.04
2023-01-21T05:02:39.853Z,-1.10
2023-01-21T05:05:11.628Z,-1.00
2023-01-21T05:07:38.069Z,-1.05
2023-01-21T05:10:05.088Z,-1.11
2023-01-21T05:12:32.065Z,-1.02
2023-01-21T05:14:58.461Z,-1.04
2023-01-21T05:17:25.466Z,-1.03
2023-01-21T05:19:51.985Z,-1.11
2023-01-21T05:22:25.546Z,-1.12
2023-01-21T05:24:52.008Z,-1.07
2023-01-21T05:27:19.909Z,-1.12
2023-01-21T05:29:46.361Z,-1.06
2023-01-21T05:32:12.936Z,-1.03
2023-01-21T05:34:39.436Z,-1.06
2023-01-21T05:37:06.059Z,-1.07
2023-01-21T05:39:32.834Z,-1.07
2023-01-21T05:41:59.299Z,-1.02
2023-01-21T05:44:25.706Z,-1.09
2023-01-21T05:46:52.518Z,-1.09
2023-01-21T05:49:19.648Z,-0.99
2023-01-21T05:51:46.209Z,-1.07
2023-01-21T05:54:13.042Z,-0.99
2023-01-21T05:56:39.510Z,-1.04
2023-01-21T05:59:06.026Z,-1.03
2023-01-21T06:01:32.510Z,-1.06
2023-01-21T06:03:58.960Z,-1.02
2023-01-21T06:06:25.322Z,-1.03
2023-01-21T06:08:51.782Z,-1.05
2023-01-21T06:11:18.199Z,-1.11
2023-01-21T06:13:44.831Z,-1.07
2023-01-21T06:16:11.323Z,-1.04
2023-01-21T06:18:37.866Z,-1.03
2023-01-21T06:21:04.508Z,-1.11
2023-01-21T06:23:30.924Z,-1.00
2023-01-21T06:26:01.574Z,-1.09
2023-01-21T06:28:29.245Z,-1.05
2023-01-21T06:30:56.047Z,-1.07
2023-01-21T06:33:22.599Z,-1.11
2023-01-21T06:35:49.024Z,-1.13
2023-01-21T06:38:19.000Z,-1.16
2023-01-21T06:40:45.434Z,-1.16
2023-01-21T06:43:11.990Z,-1.12
2023-01-21T06:45:44.122Z,-1.09
2023-01-21T06:48:10.517Z,-1.08
2023-01-21T06:50:36.920Z,-1.04
2023-01-21T06:53:03.531Z,-1.09
2023-01-21T06:55:29.948Z,-1.13
2023-01-21T06:57:57.481Z,-0.99
2023-01-21T07:00:24.401Z,-1.02
2023-01-21T07:02:55.980Z,-0.94
2023-01-21T07:05:23.243Z,-0.94
2023-01-21T07:07:49.569Z,-0.96
2023-01-21T07:10:16.860Z,-0.93
2023-01-21T07:12:43.853Z,-0.89
2023-01-21T07:15:10.348Z,-0.85
2023-01-21T07:17:36.979Z,-0.91
2023-01-21T07:20:05.012Z,-0.87
2023-01-21T07:22:33.951Z,-0.96
2023-01-21T07:25:01.513Z,-0.93
2023-01-21T07:27:27.946Z,-0.94
2023-01-21T07:29:54.472Z,-0.88
2023-01-21T07:32:21.643Z,-0.80
2023-01-21T07:34:48.077Z,-0.83
2023-01-21T07:37:14.791Z,-0.90
2023-01-21T07:39:41.279Z,-0.80
2023-01-21T07:42:09.059Z,-0.80
2023-01-21T07:44:35.498Z,-0.78
2023-01-21T07:47:02.065Z,-0.73
2023-01-21T07:49:28.452Z,-0.85
2023-01-21T07:51:58.087Z,-0.77
2023-01-21T07:54:24.734Z,-0.87
2023-01-21T07:56:51.085Z,-0.78
2023-01-21T07:59:17.685Z,-0.79
2023-01-21T08:01:45.467Z,-0.75
2023-01-21T08:04:12.102Z,-0.72
2023-01-21T08:06:41.184Z,-0.76
2023-01-21T08:09:09.613Z,-0.72
2023-01-21T08:11:36.048Z,-0.74
2023-01-21T08:14:02.449Z,-0.65
2023-01-21T08:16:29.009Z,-0.72
2023-01-21T08:18:55.396Z,-0.75
2023-01-21T08:21:22.039Z,-0.63
2023-01-21T08:23:48.546Z,-0.59
2023-01-21T08:26:15.225Z,-0.45
2023-01-21T08:28:44.099Z,-0.47
2023-01-21T08:31:12.525Z,-0.42
2023-01-21T08:33:39.515Z,-0.35
2023-01-21T08:36:07.608Z,-0.37
2023-01-21T08:38:35.417Z,-0.44
2023-01-21T08:41:01.974Z,-0.55
2023-01-21T08:43:28.464Z,-0.35
2023-01-21T08:46:01.633Z,-0.44
2023-01-21T08:48:29.224Z,-0.37
2023-01-21T08:51:00.151Z,-0.34
2023-01-21T08:53:26.704Z,-0.33
2023-01-21T08:55:53.130Z,-0.30
2023-01-21T08:58:19.608Z,-0.25
2023-01-21T09:00:46.095Z,-0.27
2023-01-21T09:03:14.322Z,-0.22
2023-01-21T09:05:40.671Z,-0.15
2023-01-21T09:08:07.061Z,-0.14
2023-01-21T09:10:52.700Z,-0.12
2023-01-21T09:13:20.175Z,-0.04
2023-01-21T09:15:46.855Z,-0.02
2023-01-21T09:18:13.535Z,-0.07
2023-01-21T09:20:40.443Z,0.01
2023-01-21T09:23:24.591Z,0.03
2023-01-21T09:26:05.580Z,0.09
2023-01-21T09:28:34.395Z,0.20
2023-01-21T09:31:03.107Z,0.18
2023-01-21T09:33:30.568Z,0.11
2023-01-21T09:36:01.638Z,0.23
2023-01-21T09:38:29.179Z,0.31
2023-01-21T09:40:57.515Z,0.23
2023-01-21T09:43:27.621Z,0.23
2023-01-21T09:45:56.321Z,0.29
2023-01-21T09:48:32.852Z,0.34
2023-01-21T09:51:03.287Z,0.28
2023-01-21T09:53:38.220Z,0.24
2023-01-21T09:56:07.284Z,0.27
2023-01-21T09:58:46.818Z,0.45
2023-01-21T10:01:24.520Z,0.51
2023-01-21T10:03:56.842Z,0.49
2023-01-21T10:06:28.512Z,0.48
2023-01-21T10:09:21.291Z,0.50
2023-01-21T10:12:11.044Z,0.56
2023-01-21T10:14:46.351Z,0.68
2023-01-21T10:17:18.585Z,0.75
2023-01-21T10:19:54.761Z,0.74
2023-01-21T10:22:25.473Z,0.71
2023-01-21T10:24:55.437Z,0.75
2023-01-21T10:27:22.523Z,0.68
2023-01-21T10:29:53.058Z,0.78
2023-01-21T10:32:25.923Z,0.70
2023-01-21T10:34:54.130Z,0.66
2023-01-21T10:37:27.831Z,0.70
2023-01-21T10:40:12.519Z,0.75
2023-01-21T10:42:59.642Z,0.69
2023-01-21T10:45:45.347Z,0.84
2023-01-21T10:48:23.463Z,0.83
2023-01-21T10:50:56.935Z,0.77
2023-01-21T10:54:08.419Z,0.78
2023-01-21T10:57:12.725Z,0.73
2023-01-21T10:59:40.436Z,0.85
2023-01-21T11:02:12.777Z,0.88
2023-01-21T11:04:40.812Z,0.85
2023-01-21T11:07:13.246Z,0.82
2023-01-21T11:09:42.052Z,0.80
2023-01-21T11:12:10.404Z,0.87
2023-01-21T11:14:37.446Z,1.01
2023-01-21T11:17:05.909Z,1.04
2023-01-21T11:19:32.528Z,0.97
2023-01-21T11:22:18.110Z,1.01
2023-01-21T11:24:49.953Z,1.04
2023-01-21T11:27:23.101Z,0.85
2023-01-21T11:29:50.440Z,1.02
2023-01-21T11:32:20.440Z,0.97
2023-01-21T11:34:48.790Z,0.98
2023-01-21T11:37:26.389Z,1.02
2023-01-21T11:39:58.026Z,1.03
2023-01-21T11:42:24.916Z,1.12
2023-01-21T11:44:57.968Z,1.07
2023-01-21T11:47:38.942Z,1.07
2023-01-21T11:50:12.209Z,1.09
2023-01-21T11:52:38.724Z,1.12
2023-01-21T11:55:17.684Z,1.09
2023-01-21T11:57:49.315Z,1.22
2023-01-21T12:00:21.142Z,1.20
2023-01-21T12:02:54.691Z,1.20
2023-01-21T12:05:40.500Z,1.03
2023-01-21T12:08:07.526Z,1.06
2023-01-21T12:10:42.877Z,1.00
2023-01-21T12:13:20.141Z,1.00
2023-01-21T12:16:15.209Z,0.94
2023-01-21T12:18:59.602Z,0.80
2023-01-21T12:22:00.910Z,0.79
2023-01-21T12:24:47.261Z,0.88
2023-01-21T12:27:32.397Z,0.86
2023-01-21T12:30:08.340Z,0.81
2023-01-21T12:32:40.188Z,0.79
2023-01-21T12:35:11.722Z,0.89
2023-01-21T12:37:46.795Z,0.82
2023-01-21T12:40:17.984Z,0.99
2023-01-21T12:42:49.084Z,1.01
2023-01-21T12:45:29.312Z,0.98
2023-01-21T12:48:27.523Z,1.04
2023-01-21T12:50:59.509Z,1.00
2023-01-21T12:53:48.446Z,1.11
2023-01-21T12:56:23.689Z,1.21
2023-01-21T12:58:57.455Z,1.15
2023-01-21T13:01:44.586Z,1.27
2023-01-21T13:04:42.066Z,1.20
2023-01-21T13:07:29.753Z,1.16
2023-01-21T13:10:03.303Z,1.34
2023-01-21T13:12:31.474Z,1.37
2023-01-21T13:15:06.220Z,1.39
2023-01-21T13:17:34.321Z,1.43
2023-01-21T13:20:00.950Z,1.49
2023-01-21T13:22:51.777Z,1.37
2023-01-21T13:25:41.609Z,1.50
2023-01-21T13:28:16.740Z,1.42
2023-01-21T13:31:03.112Z,1.52
2023-01-21T13:33:48.678Z,1.29
2023-01-21T13:36:26.815Z,1.25
2023-01-21T13:39:15.166Z,1.17
2023-01-21T13:41:44.403Z,1.05
2023-01-21T13:44:52.371Z,1.07
2023-01-21T13:47:50.809Z,0.96
2023-01-21T13:50:26.139Z,0.87
2023-01-21T13:53:18.943Z,0.76
2023-01-21T13:56:16.987Z,0.69
2023-01-21T13:58:59.095Z,0.68
2023-01-21T14:01:33.784Z,0.64
2023-01-21T14:04:15.631Z,0.58
2023-01-21T14:06:53.271Z,0.51
2023-01-21T14:09:24.729Z,0.55
2023-01-21T14:11:58.946Z,0.50
2023-01-21T14:14:51.348Z,0.51
2023-01-21T14:17:43.336Z,0.48
2023-01-21T14:20:28.234Z,0.46
2023-01-21T14:23:16.437Z,0.48
2023-01-21T14:26:03.772Z,0.46
2023-01-21T14:29:09.649Z,0.53
2023-01-21T14:31:41.483Z,0.55
2023-01-21T14:34:25.256Z,0.58
2023-01-21T14:37:02.891Z,0.52
2023-01-21T14:39:41.361Z,0.47
2023-01-21T14:42:10.584Z,0.44
2023-01-21T14:44:45.321Z,0.46
2023-01-21T14:47:19.814Z,0.46
2023-01-21T14:49:49.173Z,0.43
2023-01-21T14:52:18.061Z,0.42
2023-01-21T14:54:45.988Z,0.47
2023-01-21T14:57:36.043Z,0.41
2023-01-21T15:00:22.662Z,0.39
2023-01-21T15:03:16.564Z,0.41
2023-01-21T15:05:44.538Z,0.40
2023-01-21T15:08:25.234Z,0.46
2023-01-21T15:11:28.657Z,0.42
2023-01-21T15:14:19.896Z,0.40
2023-01-21T15:16:47.034Z,0.44
2023-01-21T15:19:14.720Z,0.46
2023-01-21T15:21:41.096Z,0.41
2023-01-21T15:24:19.867Z,0.43
2023-01-21T15:27:11.170Z,0.42
2023-01-21T15:29:39.097Z,0.47
2023-01-21T15:32:18.849Z,0.41
2023-01-21T15:34:47.990Z,0.43
2023-01-21T15:37:20.313Z,0.39
2023-01-21T15:39:48.311Z,0.42
2023-01-21T15:42:31.796Z,0.44
2023-01-21T15:45:40.852Z,0.40
2023-01-21T15:48:40.187Z,0.41
2023-01-21T15:51:32.782Z,0.40
2023-01-21T15:54:23.122Z,0.45
2023-01-21T15:57:22.132Z,0.48
2023-01-21T15:59:55.916Z,0.44
2023-01-21T16:02:28.057Z,0.48
2023-01-21T16:05:17.269Z,0.47
2023-01-21T16:08:04.491Z,0.48
2023-01-21T16:10:58.904Z,0.44
2023-01-21T16:13:47.791Z,0.49
2023-01-21T16:16:46.975Z,0.41
2023-01-21T16:19:20.115Z,0.44
2023-01-21T16:21:50.366Z,0.40
2023-01-21T16:24:19.042Z,0.45
2023-01-21T16:26:45.482Z,0.44
2023-01-21T16:29:14.097Z,0.47
2023-01-21T16:31:51.713Z,0.47
2023-01-21T16:34:40.932Z,0.51
2023-01-21T16:37:15.845Z,0.46
2023-01-21T16:39:43.093Z,0.45
2023-01-21T16:42:36.699Z,0.43
2023-01-21T16:45:16.587Z,0.49
2023-01-21T16:47:43.977Z,0.47
2023-01-21T16:50:18.584Z,0.49
2023-01-21T16:52:45.241Z,0.50
2023-01-21T16:55:19.903Z,0.47
2023-01-21T16:57:51.717Z,0.47
2023-01-21T17:00:23.989Z,0.46
2023-01-21T17:02:50.791Z,0.46
2023-01-21T17:05:17.585Z,0.49
2023-01-21T17:07:47.421Z,0.42
2023-01-21T17:10:37.722Z,0.42
2023-01-21T17:13:15.398Z,0.45
2023-01-21T17:16:03.177Z,0.45
2023-01-21T17:18:37.510Z,0.45
2023-01-21T17:21:11.366Z,0.47
2023-01-21T17:24:03.505Z,0.50
2023-01-21T17:26:33.242Z,0.47
2023-01-21T17:29:18.616Z,0.46
2023-01-21T17:31:54.974Z,0.53
2023-01-21T17:34:26.657Z,0.49
2023-01-21T17:36:54.373Z,0.53
2023-01-21T17:39:47.337Z,0.50
2023-01-21T17:42:25.398Z,0.53
2023-01-21T17:44:58.208Z,0.52
2023-01-21T17:47:34.502Z,0.56
2023-01-21T17:50:22.463Z,0.51
2023-01-21T17:52:54.738Z,0.49
2023-01-21T17:55:34.341Z,0.55
2023-01-21T17:58:05.547Z,0.55
2023-01-21T18:00:45.814Z,0.53
2023-01-21T18:03:12.758Z,0.57
2023-01-21T18:05:40.210Z,0.55
2023-01-21T18:08:13.412Z,0.56
2023-01-21T18:10:40.441Z,0.51
2023-01-21T18:13:07.138Z,0.50
2023-01-21T18:15:34.062Z,0.49
2023-01-21T18:18:01.992Z,0.53
2023-01-21T18:20:29.763Z,0.60
2023-01-21T18:22:57.445Z,0.61
2023-01-21T18:25:26.116Z,0.59
2023-01-21T18:27:55.478Z,0.57
2023-01-21T18:30:24.843Z,0.53
2023-01-21T18:32:52.286Z,0.54
2023-01-21T18:35:21.590Z,0.51
2023-01-21T18:37:48.408Z,0.59
2023-01-21T18:40:21.627Z,0.55
2023-01-21T18:42:55.268Z,0.57
2023-01-21T18:45:25.459Z,0.63
2023-01-21T18:47:52.656Z,0.52
2023-01-21T18:50:24.021Z,0.60
2023-01-21T18:52:50.751Z,0.56
2023-01-21T18:55:18.792Z,0.51
2023-01-21T18:57:47.478Z,0.54
2023-01-21T19:00:17.629Z,0.55
2023-01-21T19:02:44.669Z,0.54
2023-01-21T19:05:11.233Z,0.54
2023-01-21T19:07:38.192Z,0.52
2023-01-21T19:10:05.143Z,0.50
2023-01-21T19:12:31.596Z,0.57
2023-01-21T19:14:58.020Z,0.62
2023-01-21T19:17:29.898Z,0.59
2023-01-21T19:19:56.974Z,0.67
2023-01-21T19:22:23.960Z,0.65
2023-01-21T19:24:51.006Z,0.61
2023-01-21T19:27:25.229Z,0.57
2023-01-21T19:29:51.654Z,0.55
2023-01-21T19:32:18.199Z,0.58
2023-01-21T19:34:44.861Z,0.64
2023-01-21T19:37:16.111Z,0.57
2023-01-21T19:39:42.644Z,0.67
2023-01-21T19:42:13.771Z,0.62
2023-01-21T19:44:40.704Z,0.63
2023-01-21T19:47:17.469Z,0.60
2023-01-21T19:49:44.459Z,0.58
2023-01-21T19:52:13.777Z,0.62
2023-01-21T19:54:40.334Z,0.61
2023-01-21T19:57:14.722Z,0.63
2023-01-21T19:59:43.013Z,0.57
2023-01-21T20:02:12.992Z,0.57
2023-01-21T20:04:39.547Z,0.56
2023-01-21T20:07:07.067Z,0.53
2023-01-21T20:09:33.485Z,0.67
2023-01-21T20:12:02.070Z,0.58
2023-01-21T20:14:30.601Z,0.58
2023-01-21T20:16:57.082Z,0.59
2023-01-21T20:19:23.561Z,0.66
2023-01-21T20:22:01.354Z,0.61
2023-01-21T20:24:30.458Z,0.66
2023-01-21T20:26:57.951Z,0.71
2023-01-21T20:29:26.560Z,0.70
2023-01-21T20:31:54.308Z,0.64
2023-01-21T20:34:20.979Z,0.64
2023-01-21T20:36:49.606Z,0.59
2023-01-21T20:39:16.162Z,0.64
2023-01-21T20:41:43.412Z,0.70
2023-01-21T20:44:10.471Z,0.70
2023-01-21T20:46:37.003Z,0.62
2023-01-21T20:49:03.485Z,0.63
2023-01-21T20:51:30.029Z,0.60
2023-01-21T20:53:56.572Z,0.58
2023-01-21T20:56:31.234Z,0.58
2023-01-21T20:58:58.601Z,0.67
2023-01-21T21:01:26.704Z,0.64
2023-01-21T21:03:53.257Z,0.66
2023-01-21T21:06:21.679Z,0.58
2023-01-21T21:08:49.539Z,0.54
2023-01-21T21:11:16.898Z,0.56
2023-01-21T21:13:46.390Z,0.59
2023-01-21T21:16:23.170Z,0.61
2023-01-21T21:18:50.250Z,0.60
2023-01-21T21:21:18.052Z,0.65
2023-01-21T21:23:47.472Z,0.56
2023-01-21T21:26:22.980Z,0.66
2023-01-21T21:28:50.216Z,0.71
2023-01-21T21:31:17.549Z,0.69
2023-01-21T21:33:44.236Z,0.62
2023-01-21T21:36:13.724Z,0.56
2023-01-21T21:38:40.308Z,0.63
2023-01-21T21:41:25.540Z,0.53
2023-01-21T21:43:52.093Z,0.50
2023-01-21T21:46:37.144Z,0.50
2023-01-21T21:49:03.591Z,0.61
2023-01-21T21:51:31.829Z,0.55
2023-01-21T21:53:58.250Z,0.54
2023-01-21T21:56:24.712Z,0.57
2023-01-21T21:58:52.031Z,0.53
2023-01-21T22:01:23.758Z,0.57
2023-01-21T22:03:50.788Z,0.59
2023-01-21T22:06:19.036Z,0.59
2023-01-21T22:08:45.696Z,0.67
2023-01-21T22:11:19.910Z,0.53
2023-01-21T22:13:50.085Z,0.64
2023-01-21T22:16:25.335Z,0.62
2023-01-21T22:18:52.131Z,0.58
2023-01-21T22:21:27.644Z,0.62
2023-01-21T22:23:54.852Z,0.61
2023-01-21T22:26:26.210Z,0.61
2023-01-21T22:28:53.664Z,0.65
2023-01-21T22:31:28.473Z,0.65
2023-01-21T22:33:56.103Z,0.62
2023-01-21T22:36:24.513Z,0.60
2023-01-21T22:38:52.191Z,0.62
2023-01-21T22:41:20.492Z,0.60
2023-01-21T22:43:48.673Z,0.63
2023-01-21T22:46:17.625Z,0.55
2023-01-21T22:48:44.302Z,0.70
2023-01-21T22:51:15.946Z,0.66
2023-01-21T22:53:45.478Z,0.66
2023-01-21T22:56:13.640Z,0.62
2023-01-21T22:58:40.374Z,0.65
2023-01-21T23:01:07.532Z,0.65
2023-01-21T23:03:34.515Z,0.62
2023-01-21T23:06:06.357Z,0.67
2023-01-21T23:08:33.080Z,0.62
2023-01-21T23:11:01.836Z,0.66
2023-01-21T23:13:28.336Z,0.61
2023-01-21T23:15:55.293Z,0.68
2023-01-21T23:18:22.313Z,0.63
2023-01-21T23:20:48.908Z,0.63
2023-01-21T23:23:15.445Z,0.66
2023-01-21T23:25:43.256Z,0.73
2023-01-21T23:28:15.018Z,0.69
2023-01-21T23:30:44.292Z,0.69
2023-01-21T23:33:11.932Z,0.71
2023-01-21T23:35:38.597Z,0.69
2023-01-21T23:38:05.125Z,0.66
2023-01-21T23:40:31.595Z,0.62
2023-01-21T23:42:58.106Z,0.67
2023-01-21T23:45:24.645Z,0.64
2023-01-21T23:47:51.402Z,0.68
2023-01-21T23:50:18.274Z,0.62
2023-01-21T23:52:44.972Z,0.60
2023-01-21T23:55:11.981Z,0.66
2023-01-21T23:57:38.465Z,0.67
